Time;durP1;ratioP1;P1;durP2;ratioP2;P2;SDS_P1;SDS_P2;PMS_P1;PMS_P2;Temp;Humidity;BMP_temperature;BMP_pressure;BME280_temperature;BME280_humidity;BME280_pressure;Samples;Min_cycle;Max_cycle;Signal;HPM_P1;HPM_P2
2021/09/07 00:01:13;;;;;;;12.53;11.23;;;14.90;96.50;;;;;;5071289;28;20613;-84
2021/09/07 00:03:40;;;;;;;13.00;10.77;;;14.90;96.60;;;;;;5070650;28;20624;-84
2021/09/07 00:06:07;;;;;;;14.37;10.87;;;14.80;96.20;;;;;;5071093;28;20648;-84
2021/09/07 00:08:36;;;;;;;13.97;10.83;;;14.80;96.50;;;;;;5070574;28;20629;-84
2021/09/07 00:11:02;;;;;;;11.63;10.10;;;14.80;96.40;;;;;;5070745;28;20656;-84
2021/09/07 00:13:29;;;;;;;11.73;10.53;;;14.70;96.80;;;;;;5070359;28;20598;-84
2021/09/07 00:15:59;;;;;;;11.97;10.77;;;14.70;96.10;;;;;;5071103;28;20602;-84
2021/09/07 00:18:26;;;;;;;11.57;10.43;;;14.70;96.60;;;;;;5070751;28;20623;-84
2021/09/07 00:20:52;;;;;;;14.93;10.87;;;14.60;96.50;;;;;;5070421;28;20629;-84
2021/09/07 00:23:19;;;;;;;11.47;10.27;;;14.70;96.20;;;;;;5070384;28;20713;-84
2021/09/07 00:25:48;;;;;;;12.20;10.30;;;14.60;96.90;;;;;;5070628;28;21072;-84
2021/09/07 00:28:15;;;;;;;12.20;10.90;;;14.60;97.10;;;;;;5070446;28;20614;-84
2021/09/07 00:30:42;;;;;;;14.50;12.30;;;14.60;98.00;;;;;;5070422;28;20618;-84
2021/09/07 00:33:09;;;;;;;15.00;11.70;;;14.60;98.00;;;;;;5070852;28;21247;-84
2021/09/07 00:35:36;;;;;;;13.27;11.50;;;14.40;98.30;;;;;;5069476;28;20660;-84
2021/09/07 00:38:03;;;;;;;13.70;12.30;;;14.30;99.00;;;;;;5070967;28;20948;-84
2021/09/07 00:40:30;;;;;;;12.93;11.60;;;14.30;99.10;;;;;;5074125;28;20612;-83
2021/09/07 00:42:58;;;;;;;12.23;10.90;;;14.30;99.40;;;;;;5074675;28;22065;-85
2021/09/07 00:45:25;;;;;;;12.47;11.20;;;14.30;99.60;;;;;;5073992;28;21243;-84
2021/09/07 00:47:52;;;;;;;13.27;11.17;;;14.30;99.40;;;;;;5074013;28;20985;-84
2021/09/07 00:50:19;;;;;;;13.40;12.00;;;14.30;99.40;;;;;;5069441;28;20692;-84
2021/09/07 00:52:48;;;;;;;12.60;11.40;;;14.40;99.20;;;;;;5075023;28;21174;-84
2021/09/07 00:55:16;;;;;;;13.90;12.20;;;14.30;98.40;;;;;;5073769;28;20632;-84
2021/09/07 00:57:45;;;;;;;13.40;12.10;;;14.30;98.90;;;;;;5073309;28;20647;-84
2021/09/07 01:00:14;;;;;;;14.10;11.70;;;14.30;98.90;;;;;;5074013;28;20661;-83
2021/09/07 01:02:42;;;;;;;15.83;12.13;;;14.30;99.30;;;;;;5072933;28;20623;-83
2021/09/07 01:05:10;;;;;;;14.90;12.77;;;14.20;99.90;;;;;;5073581;28;20649;-84
2021/09/07 01:07:39;;;;;;;15.13;11.80;;;14.20;99.70;;;;;;5073899;28;20710;-83
2021/09/07 01:10:08;;;;;;;12.83;10.97;;;14.20;98.90;;;;;;5073941;28;21160;-83
2021/09/07 01:12:38;;;;;;;12.70;11.40;;;14.20;98.50;;;;;;5073268;28;21030;-85
2021/09/07 01:15:09;;;;;;;14.40;12.90;;;14.10;98.50;;;;;;5072851;28;20729;-83
2021/09/07 01:17:38;;;;;;;12.47;11.17;;;14.10;98.40;;;;;;5073624;28;21169;-83
2021/09/07 01:20:09;;;;;;;12.80;11.10;;;14.10;99.30;;;;;;5073707;28;20660;-83
2021/09/07 01:22:39;;;;;;;12.63;11.33;;;14.10;99.40;;;;;;5073398;28;20609;-83
2021/09/07 01:25:10;;;;;;;13.70;12.30;;;14.10;99.40;;;;;;5073064;28;20652;-83
2021/09/07 01:27:39;;;;;;;12.47;11.27;;;14.00;98.80;;;;;;5072767;28;20610;-83
2021/09/07 01:30:09;;;;;;;12.67;11.20;;;14.00;99.00;;;;;;5073252;28;20618;-83
2021/09/07 01:32:39;;;;;;;11.60;10.20;;;14.00;98.10;;;;;;5073285;28;20681;-83
2021/09/07 01:35:07;;;;;;;12.23;10.97;;;14.10;98.00;;;;;;5072673;28;20724;-85
2021/09/07 01:37:38;;;;;;;12.33;11.03;;;14.00;98.70;;;;;;5068762;28;21230;-85
2021/09/07 01:40:09;;;;;;;13.07;10.50;;;13.90;98.80;;;;;;5052613;28;21067;-85
2021/09/07 01:42:37;;;;;;;11.83;10.67;;;13.90;98.40;;;;;;5053151;28;20673;-85
2021/09/07 01:45:06;;;;;;;12.60;11.10;;;13.90;97.80;;;;;;5052466;28;20660;-85
2021/09/07 01:47:33;;;;;;;11.70;10.57;;;13.90;97.70;;;;;;5053138;28;21139;-85
2021/09/07 01:50:01;;;;;;;12.43;10.50;;;13.90;99.30;;;;;;5059275;28;21075;-85
2021/09/07 01:52:30;;;;;;;15.13;13.17;;;13.80;98.90;;;;;;5072781;28;20614;-85
2021/09/07 01:54:59;;;;;;;14.07;11.37;;;13.80;99.40;;;;;;5063319;28;20640;-86
2021/09/07 01:57:29;;;;;;;13.27;10.80;;;13.80;98.60;;;;;;5058022;28;20661;-86
2021/09/07 01:59:58;;;;;;;11.53;10.33;;;13.80;98.70;;;;;;5052390;28;20662;-86
2021/09/07 02:02:27;;;;;;;12.80;11.50;;;13.80;98.10;;;;;;5068585;28;21470;-85
2021/09/07 02:04:54;;;;;;;15.07;11.00;;;13.80;97.90;;;;;;5071938;28;20663;-85
2021/09/07 02:07:22;;;;;;;12.53;11.33;;;13.70;98.00;;;;;;5056525;28;20666;-86
2021/09/07 02:09:52;;;;;;;12.37;11.17;;;13.70;98.00;;;;;;5060823;28;20622;-85
2021/09/07 02:12:20;;;;;;;13.20;11.90;;;13.70;98.60;;;;;;5052840;28;20618;-85
2021/09/07 02:14:50;;;;;;;14.53;11.50;;;13.60;99.00;;;;;;5058281;28;20659;-85
2021/09/07 02:17:18;;;;;;;13.40;12.00;;;13.60;99.10;;;;;;5072318;28;20610;-85
2021/09/07 02:19:46;;;;;;;14.10;12.60;;;13.60;99.80;;;;;;5070425;28;20720;-85
2021/09/07 02:22:15;;;;;;;13.40;12.20;;;13.60;99.90;;;;;;5054816;28;20643;-85
2021/09/07 02:24:44;;;;;;;16.77;13.43;;;13.60;99.90;;;;;;5058708;28;20654;-86
2021/09/07 02:27:13;;;;;;;15.23;13.63;;;13.60;99.90;;;;;;5060746;28;21008;-85
2021/09/07 02:29:42;;;;;;;16.63;11.83;;;13.60;99.30;;;;;;5067193;28;20654;-85
2021/09/07 02:32:12;;;;;;;13.53;12.10;;;13.60;98.80;;;;;;5067286;28;20713;-85
2021/09/07 02:34:41;;;;;;;12.97;11.67;;;13.60;99.50;;;;;;5062995;28;20627;-84
2021/09/07 02:37:10;;;;;;;13.50;12.10;;;13.50;99.00;;;;;;5060425;28;20726;-84
2021/09/07 02:39:39;;;;;;;15.00;11.80;;;13.50;98.90;;;;;;5065236;28;20627;-85
2021/09/07 02:42:06;;;;;;;12.13;10.83;;;13.50;99.50;;;;;;5072271;28;21013;-85
2021/09/07 02:44:35;;;;;;;14.00;12.67;;;13.50;99.90;;;;;;5056078;28;21185;-84
2021/09/07 02:47:03;;;;;;;13.00;11.80;;;13.50;99.90;;;;;;5052908;28;20639;-84
2021/09/07 02:49:32;;;;;;;18.90;13.20;;;13.50;99.50;;;;;;5053183;28;20618;-84
2021/09/07 02:52:00;;;;;;;15.50;13.90;;;13.40;99.80;;;;;;5054376;28;21224;-86
2021/09/07 02:54:31;;;;;;;14.57;13.03;;;13.40;99.90;;;;;;5065426;28;20634;-85
2021/09/07 02:57:07;;;;;;;14.33;12.90;;;13.40;99.90;;;;;;5056547;28;20631;-84
2021/09/07 02:59:45;;;;;;;13.73;12.40;;;13.40;99.50;;;;;;5054079;28;20619;-84
2021/09/07 03:02:14;;;;;;;13.60;12.20;;;13.30;99.90;;;;;;5052081;28;20630;-85
2021/09/07 03:04:44;;;;;;;16.00;13.60;;;13.30;99.90;;;;;;5071165;28;20633;-84
2021/09/07 03:07:14;;;;;;;14.40;12.77;;;13.30;99.90;;;;;;5066789;28;20671;-85
2021/09/07 03:09:42;;;;;;;14.17;12.77;;;13.30;99.90;;;;;;5060058;28;21114;-85
2021/09/07 03:12:09;;;;;;;16.23;13.63;;;13.40;99.90;;;;;;5068896;28;20721;-85
2021/09/07 03:14:36;;;;;;;17.00;13.20;;;13.30;99.90;;;;;;5071177;28;20619;-84
2021/09/07 03:17:03;;;;;;;14.73;13.20;;;13.30;99.90;;;;;;5053461;28;20634;-84
2021/09/07 03:19:30;;;;;;;14.37;12.70;;;13.30;99.90;;;;;;5051153;28;20643;-85
2021/09/07 03:21:59;;;;;;;14.80;13.17;;;13.30;99.90;;;;;;5051141;28;20966;-84
2021/09/07 03:24:26;;;;;;;14.90;13.40;;;13.30;99.70;;;;;;5050044;28;20629;-84
2021/09/07 03:26:53;;;;;;;15.40;13.47;;;13.30;99.90;;;;;;5070768;28;21024;-84
2021/09/07 03:29:20;;;;;;;14.50;13.00;;;13.40;99.90;;;;;;5069514;28;20616;-84
2021/09/07 03:31:47;;;;;;;15.63;12.27;;;13.40;99.90;;;;;;5069925;28;20628;-85
2021/09/07 03:34:14;;;;;;;14.67;13.27;;;13.40;99.90;;;;;;5069430;28;20609;-84
2021/09/07 03:36:41;;;;;;;14.40;12.90;;;13.40;99.90;;;;;;5056879;28;20633;-84
2021/09/07 03:39:09;;;;;;;16.53;11.93;;;13.40;99.90;;;;;;5070003;28;20627;-84
2021/09/07 03:41:36;;;;;;;13.80;12.00;;;13.40;99.90;;;;;;5051046;28;21187;-85
2021/09/07 03:44:03;;;;;;;13.93;11.33;;;13.30;99.90;;;;;;5066562;28;20634;-84
2021/09/07 03:46:31;;;;;;;13.47;12.07;;;13.20;99.90;;;;;;5070741;28;20653;-84
2021/09/07 03:48:58;;;;;;;14.03;12.30;;;13.20;99.90;;;;;;5071227;28;20619;-85
2021/09/07 03:51:25;;;;;;;13.93;12.40;;;13.20;99.90;;;;;;5068732;28;20620;-84
2021/09/07 03:53:51;;;;;;;14.73;13.07;;;13.20;99.90;;;;;;5066066;28;20656;-84
2021/09/07 03:56:20;;;;;;;13.80;12.40;;;13.10;99.90;;;;;;5065841;28;20631;-84
2021/09/07 03:58:47;;;;;;;13.97;12.10;;;13.10;99.90;;;;;;5069938;28;20610;-84
2021/09/07 04:01:14;;;;;;;13.53;12.17;;;13.10;99.90;;;;;;5058365;28;20623;-84
2021/09/07 04:03:41;;;;;;;14.77;13.27;;;13.20;99.90;;;;;;5069021;28;20606;-84
2021/09/07 04:06:08;;;;;;;13.17;11.17;;;13.10;99.90;;;;;;5064543;28;20658;-84
2021/09/07 04:08:37;;;;;;;14.10;12.70;;;13.10;99.90;;;;;;5063163;28;20625;-84
2021/09/07 04:11:04;;;;;;;16.20;12.57;;;13.20;99.90;;;;;;5063064;28;20629;-84
2021/09/07 04:13:32;;;;;;;13.37;11.97;;;13.10;99.90;;;;;;5053212;28;20681;-83
2021/09/07 04:15:59;;;;;;;13.90;12.17;;;13.10;99.90;;;;;;5053480;28;20681;-84
2021/09/07 04:18:26;;;;;;;14.63;12.47;;;13.10;99.90;;;;;;5060304;28;20621;-84
2021/09/07 04:20:53;;;;;;;13.67;12.27;;;13.00;99.90;;;;;;5063633;28;20634;-84
2021/09/07 04:23:22;;;;;;;13.23;11.70;;;13.00;99.90;;;;;;5073818;28;21197;-84
2021/09/07 04:25:49;;;;;;;12.90;11.50;;;13.00;99.90;;;;;;5068616;28;20670;-83
2021/09/07 04:28:20;;;;;;;11.80;10.00;;;12.90;99.90;;;;;;5054528;28;20620;-84
2021/09/07 04:30:51;;;;;;;12.83;11.57;;;13.00;99.90;;;;;;5057344;28;20637;-84
2021/09/07 04:33:18;;;;;;;13.37;11.37;;;12.90;99.90;;;;;;5063760;28;20692;-83
2021/09/07 04:35:47;;;;;;;14.23;12.77;;;13.00;99.90;;;;;;5060096;28;20634;-84
2021/09/07 04:38:14;;;;;;;15.50;12.00;;;13.00;99.90;;;;;;5073181;28;20626;-84
2021/09/07 04:40:41;;;;;;;18.57;15.60;;;13.00;99.90;;;;;;5074636;28;20620;-83
2021/09/07 04:43:07;;;;;;;15.20;13.60;;;13.10;99.90;;;;;;5055981;28;20627;-83
2021/09/07 04:45:34;;;;;;;19.23;14.67;;;13.10;99.90;;;;;;5062182;28;20649;-84
2021/09/07 04:48:03;;;;;;;14.53;13.03;;;13.20;99.90;;;;;;5073776;28;21025;-84
2021/09/07 04:50:30;;;;;;;17.20;11.90;;;13.30;99.90;;;;;;5072397;28;20631;-83
2021/09/07 04:52:57;;;;;;;14.73;13.10;;;13.30;99.90;;;;;;5057772;28;20611;-83
2021/09/07 04:55:24;;;;;;;16.43;14.40;;;13.30;99.90;;;;;;5054820;28;20677;-83
2021/09/07 04:57:51;;;;;;;17.80;13.77;;;13.20;99.90;;;;;;5063673;28;21286;-83
2021/09/07 05:00:19;;;;;;;15.37;13.57;;;13.20;99.90;;;;;;5071357;28;20684;-83
2021/09/07 05:02:46;;;;;;;14.57;13.07;;;13.20;99.90;;;;;;5054423;28;20680;-83
2021/09/07 05:05:14;;;;;;;15.73;13.23;;;13.10;99.90;;;;;;5062931;28;20985;-83
2021/09/07 05:07:41;;;;;;;14.50;13.00;;;13.10;99.90;;;;;;5073475;28;20672;-83
2021/09/07 05:10:09;;;;;;;16.37;12.93;;;13.10;99.90;;;;;;5061092;28;20656;-83
2021/09/07 05:12:36;;;;;;;15.10;13.50;;;13.00;99.90;;;;;;5056395;28;20635;-83
2021/09/07 05:15:03;;;;;;;14.47;12.97;;;13.00;99.90;;;;;;5061133;28;21083;-84
2021/09/07 05:17:30;;;;;;;15.70;14.03;;;13.00;99.90;;;;;;5071347;28;20665;-83
2021/09/07 05:19:57;;;;;;;18.17;13.93;;;13.00;99.90;;;;;;5072994;28;20674;-83
2021/09/07 05:22:25;;;;;;;17.27;14.67;;;12.90;99.90;;;;;;5071608;28;20960;-83
2021/09/07 05:24:52;;;;;;;15.27;13.67;;;13.00;99.90;;;;;;5068306;28;20664;-84
2021/09/07 05:27:19;;;;;;;17.83;15.17;;;13.10;99.90;;;;;;5058789;28;21177;-83
2021/09/07 05:29:46;;;;;;;15.73;12.60;;;13.20;99.90;;;;;;5054694;28;20621;-83
2021/09/07 05:32:13;;;;;;;14.80;13.10;;;13.20;99.90;;;;;;5065248;28;20679;-83
2021/09/07 05:34:40;;;;;;;15.87;13.97;;;13.20;99.90;;;;;;5069857;28;20627;-83
2021/09/07 05:37:07;;;;;;;17.50;13.30;;;13.40;99.90;;;;;;5071885;28;21220;-83
2021/09/07 05:39:35;;;;;;;15.47;13.37;;;13.40;99.90;;;;;;5073832;28;20627;-83
2021/09/07 05:42:03;;;;;;;17.23;13.40;;;13.40;99.90;;;;;;5061171;28;20698;-83
2021/09/07 05:44:30;;;;;;;14.70;13.07;;;13.40;99.90;;;;;;5063119;28;20627;-83
2021/09/07 05:46:58;;;;;;;15.80;11.87;;;13.40;99.90;;;;;;5071072;28;20702;-83
2021/09/07 05:49:25;;;;;;;16.47;13.70;;;13.50;99.90;;;;;;5064605;28;20688;-83
2021/09/07 05:51:52;;;;;;;16.40;12.73;;;13.50;99.90;;;;;;5067228;28;20630;-83
2021/09/07 05:54:19;;;;;;;13.77;12.40;;;13.60;99.90;;;;;;5055943;28;20682;-83
2021/09/07 05:56:47;;;;;;;15.30;13.60;;;13.70;99.90;;;;;;5048010;28;21121;-84
2021/09/07 05:59:14;;;;;;;20.33;14.00;;;13.80;99.90;;;;;;5054276;28;20716;-83
2021/09/07 06:01:41;;;;;;;20.60;13.67;;;13.90;99.90;;;;;;5072365;28;20629;-85
2021/09/07 06:04:08;;;;;;;19.00;14.60;;;13.90;99.90;;;;;;5071541;28;20683;-84
2021/09/07 06:06:35;;;;;;;18.10;14.77;;;14.00;99.90;;;;;;5072572;28;21121;-85
2021/09/07 06:09:02;;;;;;;18.10;15.53;;;14.20;99.90;;;;;;5071851;28;20614;-84
2021/09/07 06:11:29;;;;;;;18.13;14.60;;;14.10;99.90;;;;;;5052933;28;20659;-85
2021/09/07 06:13:57;;;;;;;15.70;12.83;;;14.20;99.90;;;;;;5071941;28;20621;-84
2021/09/07 06:16:24;;;;;;;16.80;15.10;;;14.20;99.90;;;;;;5061647;28;20628;-85
2021/09/07 06:18:51;;;;;;;17.30;14.90;;;14.20;99.90;;;;;;5061741;28;20617;-84
2021/09/07 06:21:18;;;;;;;20.37;14.83;;;14.30;99.90;;;;;;5072260;28;20686;-84
2021/09/07 06:23:45;;;;;;;16.43;13.63;;;14.30;99.90;;;;;;5059471;28;20683;-84
2021/09/07 06:26:12;;;;;;;19.80;14.33;;;14.40;99.90;;;;;;5067475;28;20723;-84
2021/09/07 06:28:39;;;;;;;16.23;13.67;;;14.40;99.90;;;;;;5060354;28;20621;-84
2021/09/07 06:31:08;;;;;;;16.10;14.50;;;14.40;99.90;;;;;;5060322;28;20685;-84
2021/09/07 06:33:35;;;;;;;20.80;13.20;;;14.40;99.90;;;;;;5057116;28;20628;-84
2021/09/07 06:36:02;;;;;;;22.60;15.73;;;14.50;99.90;;;;;;5060738;28;20622;-84
2021/09/07 06:38:29;;;;;;;21.63;15.10;;;14.60;99.90;;;;;;5063470;28;20649;-84
2021/09/07 06:40:55;;;;;;;16.47;12.70;;;14.70;99.90;;;;;;5058964;28;20618;-85
2021/09/07 06:43:22;;;;;;;17.70;14.87;;;14.80;99.90;;;;;;5060008;28;20619;-84
2021/09/07 06:45:49;;;;;;;17.43;14.10;;;14.80;99.90;;;;;;5061809;28;20618;-84
2021/09/07 06:48:18;;;;;;;20.80;14.27;;;14.90;99.90;;;;;;5060779;28;20674;-84
2021/09/07 06:50:44;;;;;;;15.20;13.57;;;15.00;99.90;;;;;;5059420;28;20716;-84
2021/09/07 06:53:11;;;;;;;19.77;14.90;;;15.10;99.80;;;;;;5058176;28;20755;-84
2021/09/07 06:55:39;;;;;;;19.20;13.73;;;15.20;99.70;;;;;;5062044;28;21019;-84
2021/09/07 06:58:06;;;;;;;18.23;13.60;;;15.30;99.40;;;;;;5060778;28;21019;-85
2021/09/07 07:00:33;;;;;;;18.27;15.17;;;15.50;99.40;;;;;;5060709;28;20617;-85
2021/09/07 07:03:00;;;;;;;17.03;13.20;;;15.60;99.00;;;;;;5060980;28;21001;-84
2021/09/07 07:05:29;;;;;;;18.27;13.80;;;15.70;99.10;;;;;;5057660;28;20641;-84
2021/09/07 07:07:56;;;;;;;20.77;13.43;;;15.80;99.00;;;;;;5066053;28;20661;-84
2021/09/07 07:10:23;;;;;;;18.90;14.77;;;16.00;98.80;;;;;;5060620;28;21036;-84
2021/09/07 07:12:50;;;;;;;18.73;13.77;;;16.10;98.40;;;;;;5066692;28;20657;-84
2021/09/07 07:15:17;;;;;;;16.50;13.47;;;16.20;98.10;;;;;;5070757;28;20627;-83
2021/09/07 07:17:44;;;;;;;14.70;12.87;;;16.20;98.00;;;;;;5069985;28;20626;-84
2021/09/07 07:20:12;;;;;;;20.80;13.17;;;16.30;97.60;;;;;;5065018;28;20625;-84
2021/09/07 07:22:40;;;;;;;18.37;12.17;;;16.40;97.10;;;;;;5065622;28;20944;-84
2021/09/07 07:25:08;;;;;;;15.80;13.27;;;16.50;96.70;;;;;;5070831;28;20617;-84
2021/09/07 07:27:38;;;;;;;15.00;12.30;;;16.70;95.90;;;;;;5064132;28;20669;-84
2021/09/07 07:30:07;;;;;;;16.37;14.60;;;16.80;96.00;;;;;;5065214;28;20618;-84
2021/09/07 07:32:35;;;;;;;18.40;15.10;;;17.00;95.40;;;;;;5059769;28;20717;-84
2021/09/07 07:35:03;;;;;;;17.10;12.50;;;17.20;95.30;;;;;;5058233;28;21207;-84
2021/09/07 07:37:30;;;;;;;19.13;12.50;;;17.30;95.10;;;;;;5057568;28;20621;-84
2021/09/07 07:39:58;;;;;;;15.03;13.03;;;17.30;95.40;;;;;;5059064;28;21049;-85
2021/09/07 07:42:25;;;;;;;17.73;11.83;;;17.50;94.30;;;;;;5056992;28;20639;-84
2021/09/07 07:44:52;;;;;;;21.13;12.70;;;17.50;94.30;;;;;;5058546;28;20693;-85
2021/09/07 07:47:19;;;;;;;17.97;13.87;;;17.50;95.80;;;;;;5058796;28;20681;-84
2021/09/07 07:49:47;;;;;;;13.10;11.73;;;17.70;94.70;;;;;;5065139;28;20650;-84
2021/09/07 07:52:15;;;;;;;18.73;13.50;;;17.80;94.40;;;;;;5066440;28;20633;-85
2021/09/07 07:54:44;;;;;;;13.87;12.30;;;18.00;93.80;;;;;;5061401;28;20615;-84
2021/09/07 07:57:15;;;;;;;22.63;12.13;;;18.20;93.50;;;;;;5067117;28;20619;-84
2021/09/07 07:59:42;;;;;;;23.17;12.97;;;18.20;93.00;;;;;;5069465;28;21005;-84
2021/09/07 08:02:28;;;;;;;15.10;12.40;;;18.30;93.40;;;;;;5067548;28;20622;-84
2021/09/07 08:04:55;;;;;;;12.83;11.43;;;18.50;92.90;;;;;;5056449;28;20644;-82
2021/09/07 08:07:24;;;;;;;21.47;12.90;;;18.80;92.00;;;;;;5062892;28;21302;-81
2021/09/07 08:09:51;;;;;;;16.03;14.40;;;18.70;92.90;;;;;;5065113;28;21211;-82
2021/09/07 08:12:21;;;;;;;14.13;11.10;;;18.80;92.50;;;;;;5060593;28;20613;-83
2021/09/07 08:14:48;;;;;;;13.83;12.30;;;19.00;92.70;;;;;;5064950;28;20663;-83
2021/09/07 08:17:15;;;;;;;13.90;12.27;;;19.00;92.60;;;;;;5061686;28;20627;-83
2021/09/07 08:19:43;;;;;;;13.60;12.20;;;19.10;92.60;;;;;;5067189;28;20622;-83
2021/09/07 08:22:10;;;;;;;15.90;12.30;;;19.20;92.50;;;;;;5068652;28;20622;-82
2021/09/07 08:24:38;;;;;;;15.93;12.20;;;19.40;91.90;;;;;;5068666;28;20707;-82
2021/09/07 08:27:06;;;;;;;12.40;11.20;;;19.50;92.30;;;;;;5083073;28;20670;-83
2021/09/07 08:29:34;;;;;;;11.23;10.10;;;19.50;91.70;;;;;;5078727;28;20662;-83
2021/09/07 08:32:01;;;;;;;12.40;11.13;;;19.60;91.40;;;;;;5077098;28;20632;-82
2021/09/07 08:34:28;;;;;;;17.47;10.30;;;19.70;90.90;;;;;;5073628;28;20668;-84
2021/09/07 08:36:57;;;;;;;11.80;10.60;;;19.70;91.00;;;;;;5068657;28;20617;-85
2021/09/07 08:39:24;;;;;;;13.80;10.57;;;19.80;90.10;;;;;;5054457;28;20793;-83
2021/09/07 08:41:51;;;;;;;12.20;10.63;;;20.10;88.90;;;;;;5056491;28;20626;-82
2021/09/07 08:44:19;;;;;;;16.30;10.30;;;20.10;87.70;;;;;;5068240;28;20629;-82
2021/09/07 08:46:48;;;;;;;11.57;9.70;;;20.00;89.60;;;;;;5074852;28;20652;-82
2021/09/07 08:49:21;;;;;;;11.73;9.77;;;19.90;90.60;;;;;;5077326;28;20621;-82
2021/09/07 08:51:48;;;;;;;10.80;9.33;;;20.00;90.00;;;;;;5076751;28;20623;-83
2021/09/07 08:54:19;;;;;;;9.83;8.77;;;20.00;89.80;;;;;;5077281;28;20621;-84
2021/09/07 08:56:45;;;;;;;10.90;9.60;;;20.20;87.30;;;;;;5075755;28;20625;-83
2021/09/07 08:59:12;;;;;;;14.30;9.17;;;20.30;85.20;;;;;;5055803;28;20606;-83
2021/09/07 09:01:42;;;;;;;12.23;8.93;;;20.40;81.70;;;;;;5052374;28;20606;-83
2021/09/07 09:04:28;;;;;;;12.03;8.57;;;20.50;83.80;;;;;;5052080;28;20968;-83
2021/09/07 09:06:55;;;;;;;10.20;9.20;;;20.40;85.30;;;;;;5063691;28;20649;-83
2021/09/07 09:09:23;;;;;;;10.47;8.57;;;20.50;82.30;;;;;;5073513;28;20743;-82
2021/09/07 09:11:52;;;;;;;9.43;8.33;;;20.60;82.80;;;;;;5073873;28;20618;-82
2021/09/07 09:14:32;;;;;;;10.43;7.93;;;20.60;83.20;;;;;;5073530;28;20613;-83
2021/09/07 09:16:59;;;;;;;10.23;8.70;;;20.80;81.60;;;;;;5068581;28;20996;-83
2021/09/07 09:19:28;;;;;;;8.73;7.93;;;21.00;82.40;;;;;;5073981;28;20674;-83
2021/09/07 09:21:55;;;;;;;11.93;8.80;;;21.10;80.40;;;;;;5072727;28;20621;-82
2021/09/07 09:24:23;;;;;;;10.00;9.00;;;21.30;78.40;;;;;;5073700;28;20612;-83
2021/09/07 09:26:58;;;;;;;12.87;9.20;;;21.40;77.30;;;;;;5072563;28;20638;-82
2021/09/07 09:29:27;;;;;;;9.73;8.83;;;21.60;81.10;;;;;;5074073;28;20623;-82
2021/09/07 09:31:56;;;;;;;9.50;8.60;;;21.50;82.50;;;;;;5073667;28;20707;-82
2021/09/07 09:34:24;;;;;;;10.73;8.87;;;21.30;81.00;;;;;;5072831;28;21401;-83
2021/09/07 09:37:02;;;;;;;11.70;8.93;;;21.20;82.50;;;;;;5072046;28;20608;-83
2021/09/07 09:39:36;;;;;;;9.87;8.97;;;21.20;83.90;;;;;;5071342;28;20631;-83
2021/09/07 09:42:04;;;;;;;13.30;8.70;;;21.30;76.40;;;;;;5072795;28;20596;-83
2021/09/07 09:44:31;;;;;;;15.10;8.33;;;21.50;76.50;;;;;;5072283;28;20616;-83
2021/09/07 09:46:58;;;;;;;9.03;8.13;;;21.60;77.90;;;;;;5070820;28;20624;-83
2021/09/07 09:49:27;;;;;;;11.00;8.50;;;21.70;75.90;;;;;;5068428;28;20617;-83
2021/09/07 09:52:01;;;;;;;8.67;7.77;;;21.90;75.40;;;;;;5072544;28;20623;-83
2021/09/07 09:54:31;;;;;;;9.60;8.00;;;22.10;76.50;;;;;;5072705;28;21225;-83
2021/09/07 09:56:59;;;;;;;10.97;8.60;;;22.20;76.30;;;;;;5073127;28;20619;-83
2021/09/07 09:59:28;;;;;;;9.00;8.20;;;22.30;74.00;;;;;;5072679;28;20624;-84
2021/09/07 10:01:56;;;;;;;9.43;8.53;;;22.10;74.90;;;;;;5072712;28;20960;-83
2021/09/07 10:04:25;;;;;;;9.10;8.10;;;22.10;75.60;;;;;;5066802;28;20668;-83
2021/09/07 10:06:53;;;;;;;10.00;8.77;;;22.30;76.20;;;;;;5072835;28;20653;-83
2021/09/07 10:09:25;;;;;;;8.37;7.57;;;22.40;74.50;;;;;;5072608;28;20626;-83
2021/09/07 10:12:00;;;;;;;10.00;8.90;;;22.60;73.60;;;;;;5067708;28;20674;-84
2021/09/07 10:14:31;;;;;;;8.77;7.87;;;22.80;75.00;;;;;;5056477;28;20622;-83
2021/09/07 10:17:17;;;;;;;8.70;7.80;;;23.00;71.10;;;;;;5061821;28;20618;-82
2021/09/07 10:19:46;;;;;;;9.20;8.40;;;22.90;72.00;;;;;;5067720;28;20634;-83
2021/09/07 10:25:53;;;;;;;10.47;8.70;;;23.00;71.20;;;;;;5060561;28;20728;-85
2021/09/07 10:28:37;;;;;;;12.17;8.80;;;23.00;71.60;;;;;;5070596;28;20647;-84
2021/09/07 10:31:07;;;;;;;9.30;8.40;;;23.20;71.40;;;;;;5071234;28;20749;-83
2021/09/07 10:33:37;;;;;;;8.77;7.40;;;23.20;70.50;;;;;;5054011;28;20629;-83
2021/09/07 10:36:19;;;;;;;7.83;7.13;;;23.40;71.70;;;;;;5060602;28;20715;-85
2021/09/07 10:38:48;;;;;;;11.87;8.90;;;23.40;67.70;;;;;;5052254;28;21018;-86
2021/09/07 10:41:47;;;;;;;8.73;7.93;;;23.50;69.00;;;;;;5052080;28;21080;-84
2021/09/07 10:44:28;;;;;;;10.43;7.93;;;23.70;66.50;;;;;;5048979;28;20640;-85
2021/09/07 10:47:13;;;;;;;8.30;7.50;;;23.80;66.00;;;;;;5049534;28;20676;-84
2021/09/07 10:49:49;;;;;;;10.47;7.50;;;23.90;65.10;;;;;;5064850;28;20748;-84
2021/09/07 10:52:33;;;;;;;8.53;7.70;;;24.10;63.30;;;;;;5070764;28;20624;-83
2021/09/07 10:55:16;;;;;;;8.60;7.80;;;24.10;65.70;;;;;;5051654;28;20667;-83
2021/09/07 10:57:54;;;;;;;8.53;7.83;;;24.20;63.70;;;;;;5065317;28;20632;-84
2021/09/07 11:00:36;;;;;;;8.90;8.10;;;24.20;62.30;;;;;;5066920;28;20714;-84
2021/09/07 11:03:06;;;;;;;9.37;8.40;;;24.30;63.80;;;;;;5066591;28;20630;-85
2021/09/07 11:05:51;;;;;;;8.47;7.73;;;24.40;63.70;;;;;;5055718;28;20642;-85
2021/09/07 11:08:34;;;;;;;8.87;8.07;;;24.60;63.70;;;;;;5056180;28;20681;-85
2021/09/07 11:11:22;;;;;;;8.27;7.57;;;24.70;62.80;;;;;;5049300;28;20622;-85
2021/09/07 11:13:54;;;;;;;8.77;7.97;;;24.70;62.40;;;;;;5067384;28;20630;-85
2021/09/07 11:16:21;;;;;;;9.30;8.40;;;24.80;63.50;;;;;;5051754;28;20629;-84
2021/09/07 11:18:49;;;;;;;8.30;7.50;;;24.80;60.20;;;;;;5051887;28;20700;-84
2021/09/07 11:21:16;;;;;;;9.00;7.53;;;24.90;59.40;;;;;;5054529;28;20626;-84
2021/09/07 11:23:43;;;;;;;8.43;7.63;;;25.00;58.80;;;;;;5049997;28;21030;-84
2021/09/07 11:26:11;;;;;;;8.23;7.53;;;25.10;57.80;;;;;;5059097;28;20630;-85
2021/09/07 11:28:40;;;;;;;8.33;7.57;;;25.10;58.10;;;;;;5074853;28;20665;-85
2021/09/07 11:31:13;;;;;;;8.30;7.60;;;25.10;59.40;;;;;;5091768;28;20699;-84
2021/09/07 11:33:42;;;;;;;9.00;8.30;;;25.20;58.20;;;;;;5091602;28;20629;-84
2021/09/07 11:36:10;;;;;;;8.90;8.17;;;25.50;57.10;;;;;;5086428;28;21578;-84
2021/09/07 11:38:39;;;;;;;8.83;8.13;;;25.40;57.80;;;;;;5056805;28;21239;-84
2021/09/07 11:41:09;;;;;;;8.40;7.60;;;25.40;58.50;;;;;;5071696;28;20625;-85
2021/09/07 11:43:39;;;;;;;8.70;7.90;;;25.50;58.10;;;;;;5070713;28;20629;-85
2021/09/07 11:46:09;;;;;;;7.83;7.13;;;25.80;56.40;;;;;;5055411;28;20637;-86
2021/09/07 11:48:39;;;;;;;8.10;7.30;;;25.60;57.50;;;;;;5051616;28;20670;-84
2021/09/07 11:51:08;;;;;;;8.20;7.50;;;25.80;57.50;;;;;;5071180;28;20683;-85
2021/09/07 11:53:35;;;;;;;7.80;6.70;;;25.70;56.90;;;;;;5054070;28;20630;-84
2021/09/07 11:56:02;;;;;;;8.67;7.97;;;25.80;55.80;;;;;;5051292;28;20982;-84
2021/09/07 11:58:32;;;;;;;8.67;7.97;;;25.80;56.10;;;;;;5051254;28;20615;-85
2021/09/07 12:01:09;;;;;;;7.63;6.90;;;25.70;56.10;;;;;;5067472;28;21250;-83
2021/09/07 12:03:42;;;;;;;8.30;7.50;;;25.50;54.80;;;;;;5071041;28;20629;-84
2021/09/07 12:06:12;;;;;;;7.67;6.97;;;25.40;56.80;;;;;;5070995;28;20670;-84
2021/09/07 12:08:41;;;;;;;7.57;6.73;;;25.50;55.00;;;;;;5070623;28;20685;-84
2021/09/07 12:11:14;;;;;;;8.13;7.43;;;25.40;54.50;;;;;;5070409;28;20618;-84
2021/09/07 12:13:41;;;;;;;8.10;7.30;;;25.50;54.50;;;;;;5064224;28;20610;-84
2021/09/07 12:16:09;;;;;;;8.17;7.37;;;25.20;55.50;;;;;;5070895;28;20668;-84
2021/09/07 12:18:39;;;;;;;8.70;7.90;;;25.40;55.20;;;;;;5070814;28;20731;-84
2021/09/07 12:21:21;;;;;;;7.73;7.07;;;25.50;55.30;;;;;;5069497;28;20671;-84
2021/09/07 12:23:49;;;;;;;8.57;7.87;;;25.40;55.70;;;;;;5070796;28;20614;-85
2021/09/07 12:26:17;;;;;;;10.77;7.93;;;25.30;56.60;;;;;;5070595;28;20613;-84
2021/09/07 12:28:44;;;;;;;9.30;8.13;;;25.20;56.60;;;;;;5060102;28;20976;-85
2021/09/07 12:31:21;;;;;;;7.90;6.93;;;25.20;55.80;;;;;;5061604;28;20611;-85
2021/09/07 12:33:52;;;;;;;8.60;7.80;;;25.40;55.50;;;;;;5049622;28;20667;-84
2021/09/07 12:36:20;;;;;;;7.67;6.97;;;25.60;55.40;;;;;;5052935;28;20659;-84
2021/09/07 12:38:48;;;;;;;8.03;7.20;;;25.50;54.90;;;;;;5051520;28;20715;-85
2021/09/07 12:41:17;;;;;;;8.77;7.87;;;25.60;55.20;;;;;;5056490;28;20679;-84
2021/09/07 12:43:47;;;;;;;9.07;8.30;;;25.70;54.10;;;;;;5073803;28;21182;-85
2021/09/07 12:46:17;;;;;;;7.77;7.17;;;25.80;54.60;;;;;;5070307;28;20618;-85